Uranium City, Canada
Current Conditions -  °F | °C
As of 6:00 PM on Sunday 21 Dec 2014 (Local Time) from CYSF Reporting Station
Overcast Overcast  
Wind Chill:   Ceiling: 500
Heat Index: 14°   Visibility: 9mi
Dew Point: 12°   Wind: 10mph
Humidity: 93%   Direction: 90°E
Pressure: 29.7"   Gusts: NA
Location:  59.57°N, 108.61°W
Report Text: CYSF 220000Z AUTO 09009KT 9SM OVC005 M10/M11 A2970 RMK SLP078
Loading
Personal Weather Stations






























Interactive Weather Map New forecast layout! Learn more

10-Day Weather Forecast

Advertisements
Track Severe Weather on mobile